sensor_id;sensor_type;location;lat;lon;timestamp;P1;durP1;ratioP1;P2;durP2;ratioP2
78169;SDS011;67412;49.892;14.490;2023-12-28T00:01:19;10.85;;;3.08;;
78169;SDS011;67412;49.892;14.490;2023-12-28T00:03:44;9.18;;;2.67;;
78169;SDS011;67412;49.892;14.490;2023-12-28T00:06:10;10.25;;;2.40;;
78169;SDS011;67412;49.892;14.490;2023-12-28T00:08:35;5.85;;;2.22;;
78169;SDS011;67412;49.892;14.490;2023-12-28T00:11:01;9.88;;;2.65;;
78169;SDS011;67412;49.892;14.490;2023-12-28T00:13:26;8.90;;;2.45;;
78169;SDS011;67412;49.892;14.490;2023-12-28T00:15:51;8.77;;;2.55;;
78169;SDS011;67412;49.892;14.490;2023-12-28T00:18:17;7.15;;;2.22;;
78169;SDS011;67412;49.892;14.490;2023-12-28T00:20:42;10.82;;;2.40;;
78169;SDS011;67412;49.892;14.490;2023-12-28T00:23:07;9.38;;;2.40;;
78169;SDS011;67412;49.892;14.490;2023-12-28T00:25:33;9.60;;;2.45;;
78169;SDS011;67412;49.892;14.490;2023-12-28T00:27:58;7.32;;;2.50;;
78169;SDS011;67412;49.892;14.490;2023-12-28T00:30:23;10.23;;;2.55;;
78169;SDS011;67412;49.892;14.490;2023-12-28T00:32:49;7.22;;;2.17;;
78169;SDS011;67412;49.892;14.490;2023-12-28T00:35:14;8.68;;;2.80;;
78169;SDS011;67412;49.892;14.490;2023-12-28T00:37:39;7.78;;;2.70;;
78169;SDS011;67412;49.892;14.490;2023-12-28T00:40:05;6.60;;;2.30;;
78169;SDS011;67412;49.892;14.490;2023-12-28T00:42:31;9.30;;;2.28;;
78169;SDS011;67412;49.892;14.490;2023-12-28T00:44:56;8.15;;;2.42;;
78169;SDS011;67412;49.892;14.490;2023-12-28T00:47:21;8.95;;;2.47;;
78169;SDS011;67412;49.892;14.490;2023-12-28T00:49:46;7.10;;;2.50;;
78169;SDS011;67412;49.892;14.490;2023-12-28T00:52:12;8.05;;;2.42;;
78169;SDS011;67412;49.892;14.490;2023-12-28T00:54:38;11.25;;;2.80;;
78169;SDS011;67412;49.892;14.490;2023-12-28T00:57:03;8.82;;;2.53;;
78169;SDS011;67412;49.892;14.490;2023-12-28T00:59:29;7.43;;;2.28;;
78169;SDS011;67412;49.892;14.490;2023-12-28T01:01:55;9.63;;;2.58;;
78169;SDS011;67412;49.892;14.490;2023-12-28T01:04:21;8.02;;;2.33;;
78169;SDS011;67412;49.892;14.490;2023-12-28T01:06:49;9.57;;;2.60;;
78169;SDS011;67412;49.892;14.490;2023-12-28T01:09:15;7.47;;;2.08;;
78169;SDS011;67412;49.892;14.490;2023-12-28T01:11:40;8.60;;;2.22;;
78169;SDS011;67412;49.892;14.490;2023-12-28T01:14:06;7.45;;;2.47;;
78169;SDS011;67412;49.892;14.490;2023-12-28T01:16:31;7.53;;;2.30;;
78169;SDS011;67412;49.892;14.490;2023-12-28T01:18:56;7.50;;;2.72;;
78169;SDS011;67412;49.892;14.490;2023-12-28T01:21:22;6.55;;;2.03;;
78169;SDS011;67412;49.892;14.490;2023-12-28T01:23:47;6.70;;;2.20;;
78169;SDS011;67412;49.892;14.490;2023-12-28T01:26:15;8.45;;;2.60;;
78169;SDS011;67412;49.892;14.490;2023-12-28T01:28:42;12.32;;;2.55;;
78169;SDS011;67412;49.892;14.490;2023-12-28T01:31:07;7.53;;;2.70;;
78169;SDS011;67412;49.892;14.490;2023-12-28T01:33:33;8.48;;;2.50;;
78169;SDS011;67412;49.892;14.490;2023-12-28T01:35:59;8.18;;;2.75;;
78169;SDS011;67412;49.892;14.490;2023-12-28T01:38:24;10.25;;;2.58;;
78169;SDS011;67412;49.892;14.490;2023-12-28T01:40:49;8.20;;;2.83;;
78169;SDS011;67412;49.892;14.490;2023-12-28T01:43:15;10.23;;;2.70;;
78169;SDS011;67412;49.892;14.490;2023-12-28T01:45:40;7.75;;;2.58;;
78169;SDS011;67412;49.892;14.490;2023-12-28T01:48:06;7.60;;;2.50;;
78169;SDS011;67412;49.892;14.490;2023-12-28T01:50:31;7.13;;;2.50;;
78169;SDS011;67412;49.892;14.490;2023-12-28T01:52:58;10.73;;;2.63;;
78169;SDS011;67412;49.892;14.490;2023-12-28T01:55:26;8.57;;;2.42;;
78169;SDS011;67412;49.892;14.490;2023-12-28T01:57:51;7.72;;;2.20;;
78169;SDS011;67412;49.892;14.490;2023-12-28T02:00:17;5.68;;;2.10;;
78169;SDS011;67412;49.892;14.490;2023-12-28T02:02:44;10.35;;;3.00;;
78169;SDS011;67412;49.892;14.490;2023-12-28T02:05:10;11.70;;;2.72;;
78169;SDS011;67412;49.892;14.490;2023-12-28T02:07:37;7.78;;;2.28;;
78169;SDS011;67412;49.892;14.490;2023-12-28T02:10:02;6.30;;;2.35;;
78169;SDS011;67412;49.892;14.490;2023-12-28T02:12:28;8.98;;;2.50;;
78169;SDS011;67412;49.892;14.490;2023-12-28T02:14:54;8.23;;;2.30;;
78169;SDS011;67412;49.892;14.490;2023-12-28T02:17:23;10.75;;;2.65;;
78169;SDS011;67412;49.892;14.490;2023-12-28T02:19:55;9.02;;;2.38;;
78169;SDS011;67412;49.892;14.490;2023-12-28T02:22:21;7.75;;;2.85;;
78169;SDS011;67412;49.892;14.490;2023-12-28T02:27:21;9.18;;;2.58;;
78169;SDS011;67412;49.892;14.490;2023-12-28T02:29:46;8.30;;;2.25;;
78169;SDS011;67412;49.892;14.490;2023-12-28T02:32:12;8.77;;;2.47;;
78169;SDS011;67412;49.892;14.490;2023-12-28T02:34:39;6.45;;;2.13;;
78169;SDS011;67412;49.892;14.490;2023-12-28T02:37:10;7.13;;;2.30;;
78169;SDS011;67412;49.892;14.490;2023-12-28T02:39:40;9.02;;;2.50;;
78169;SDS011;67412;49.892;14.490;2023-12-28T02:42:07;7.57;;;2.60;;
78169;SDS011;67412;49.892;14.490;2023-12-28T02:44:32;7.93;;;2.83;;
78169;SDS011;67412;49.892;14.490;2023-12-28T02:46:58;10.77;;;2.85;;
78169;SDS011;67412;49.892;14.490;2023-12-28T02:49:23;6.88;;;2.50;;
78169;SDS011;67412;49.892;14.490;2023-12-28T02:51:48;7.93;;;2.38;;
78169;SDS011;67412;49.892;14.490;2023-12-28T02:54:14;6.15;;;2.10;;
78169;SDS011;67412;49.892;14.490;2023-12-28T02:56:39;8.10;;;2.30;;
78169;SDS011;67412;49.892;14.490;2023-12-28T02:59:06;8.27;;;2.40;;
78169;SDS011;67412;49.892;14.490;2023-12-28T03:01:31;7.25;;;2.10;;
78169;SDS011;67412;49.892;14.490;2023-12-28T03:03:56;7.65;;;2.55;;
78169;SDS011;67412;49.892;14.490;2023-12-28T03:06:22;6.13;;;2.17;;
78169;SDS011;67412;49.892;14.490;2023-12-28T03:08:47;9.40;;;2.47;;
78169;SDS011;67412;49.892;14.490;2023-12-28T03:11:12;10.30;;;2.38;;
78169;SDS011;67412;49.892;14.490;2023-12-28T03:13:39;8.23;;;2.67;;
78169;SDS011;67412;49.892;14.490;2023-12-28T03:16:05;8.93;;;2.88;;
78169;SDS011;67412;49.892;14.490;2023-12-28T03:18:30;11.55;;;3.78;;
78169;SDS011;67412;49.892;14.490;2023-12-28T03:20:55;9.73;;;3.40;;
78169;SDS011;67412;49.892;14.490;2023-12-28T03:23:21;15.27;;;3.97;;
78169;SDS011;67412;49.892;14.490;2023-12-28T03:25:46;10.15;;;3.35;;
78169;SDS011;67412;49.892;14.490;2023-12-28T03:28:11;11.43;;;3.75;;
78169;SDS011;67412;49.892;14.490;2023-12-28T03:30:37;10.70;;;3.13;;
78169;SDS011;67412;49.892;14.490;2023-12-28T03:33:02;8.10;;;2.80;;
78169;SDS011;67412;49.892;14.490;2023-12-28T03:35:28;9.25;;;3.40;;
78169;SDS011;67412;49.892;14.490;2023-12-28T03:37:53;11.35;;;3.40;;
78169;SDS011;67412;49.892;14.490;2023-12-28T03:40:18;13.95;;;3.40;;
78169;SDS011;67412;49.892;14.490;2023-12-28T03:42:44;11.00;;;3.22;;
78169;SDS011;67412;49.892;14.490;2023-12-28T03:45:09;8.70;;;3.20;;
78169;SDS011;67412;49.892;14.490;2023-12-28T03:47:35;9.40;;;3.30;;
78169;SDS011;67412;49.892;14.490;2023-12-28T03:50:00;11.93;;;3.55;;
78169;SDS011;67412;49.892;14.490;2023-12-28T03:52:26;8.68;;;3.05;;
78169;SDS011;67412;49.892;14.490;2023-12-28T03:54:52;11.77;;;3.22;;
78169;SDS011;67412;49.892;14.490;2023-12-28T03:57:17;8.45;;;2.60;;
78169;SDS011;67412;49.892;14.490;2023-12-28T03:59:42;9.73;;;3.20;;
78169;SDS011;67412;49.892;14.490;2023-12-28T04:02:07;8.65;;;2.70;;
78169;SDS011;67412;49.892;14.490;2023-12-28T04:04:33;8.55;;;2.70;;
78169;SDS011;67412;49.892;14.490;2023-12-28T04:06:58;8.05;;;2.33;;
78169;SDS011;67412;49.892;14.490;2023-12-28T04:09:23;9.38;;;2.47;;
78169;SDS011;67412;49.892;14.490;2023-12-28T04:11:49;8.02;;;2.33;;
78169;SDS011;67412;49.892;14.490;2023-12-28T04:14:14;8.23;;;2.65;;
78169;SDS011;67412;49.892;14.490;2023-12-28T04:16:39;7.20;;;2.15;;
78169;SDS011;67412;49.892;14.490;2023-12-28T04:19:05;6.47;;;2.08;;
78169;SDS011;67412;49.892;14.490;2023-12-28T04:21:30;7.45;;;2.67;;
78169;SDS011;67412;49.892;14.490;2023-12-28T04:23:55;5.88;;;2.15;;
78169;SDS011;67412;49.892;14.490;2023-12-28T04:26:21;7.15;;;1.92;;
78169;SDS011;67412;49.892;14.490;2023-12-28T04:28:46;5.32;;;1.90;;
78169;SDS011;67412;49.892;14.490;2023-12-28T04:31:11;8.57;;;2.30;;
78169;SDS011;67412;49.892;14.490;2023-12-28T04:33:37;4.93;;;1.63;;
78169;SDS011;67412;49.892;14.490;2023-12-28T04:36:02;6.97;;;2.03;;
78169;SDS011;67412;49.892;14.490;2023-12-28T04:38:29;6.55;;;1.77;;
78169;SDS011;67412;49.892;14.490;2023-12-28T04:40:55;7.22;;;2.60;;
78169;SDS011;67412;49.892;14.490;2023-12-28T04:43:20;7.90;;;2.15;;
78169;SDS011;67412;49.892;14.490;2023-12-28T04:45:48;6.00;;;2.33;;
78169;SDS011;67412;49.892;14.490;2023-12-28T04:48:14;5.90;;;2.13;;
78169;SDS011;67412;49.892;14.490;2023-12-28T04:50:39;6.45;;;2.33;;
78169;SDS011;67412;49.892;14.490;2023-12-28T04:53:04;4.18;;;1.40;;
78169;SDS011;67412;49.892;14.490;2023-12-28T04:55:30;5.65;;;1.25;;
78169;SDS011;67412;49.892;14.490;2023-12-28T04:57:55;5.78;;;1.63;;
78169;SDS011;67412;49.892;14.490;2023-12-28T05:00:20;6.00;;;1.88;;
78169;SDS011;67412;49.892;14.490;2023-12-28T05:02:46;6.68;;;2.60;;
78169;SDS011;67412;49.892;14.490;2023-12-28T05:05:11;7.07;;;1.90;;
78169;SDS011;67412;49.892;14.490;2023-12-28T05:07:37;5.63;;;2.00;;
78169;SDS011;67412;49.892;14.490;2023-12-28T05:10:03;6.45;;;2.00;;
78169;SDS011;67412;49.892;14.490;2023-12-28T05:12:28;6.85;;;2.25;;
78169;SDS011;67412;49.892;14.490;2023-12-28T05:14:54;6.57;;;1.92;;
78169;SDS011;67412;49.892;14.490;2023-12-28T05:17:19;7.22;;;2.03;;
78169;SDS011;67412;49.892;14.490;2023-12-28T05:19:44;5.80;;;1.58;;
78169;SDS011;67412;49.892;14.490;2023-12-28T05:22:10;7.10;;;2.33;;
78169;SDS011;67412;49.892;14.490;2023-12-28T05:24:36;5.78;;;1.45;;
78169;SDS011;67412;49.892;14.490;2023-12-28T05:27:01;6.07;;;1.52;;
78169;SDS011;67412;49.892;14.490;2023-12-28T05:29:27;4.90;;;1.65;;
78169;SDS011;67412;49.892;14.490;2023-12-28T05:31:52;4.80;;;1.58;;
78169;SDS011;67412;49.892;14.490;2023-12-28T05:34:17;3.53;;;1.50;;
78169;SDS011;67412;49.892;14.490;2023-12-28T05:36:42;3.97;;;1.63;;
78169;SDS011;67412;49.892;14.490;2023-12-28T05:39:10;4.70;;;1.70;;
78169;SDS011;67412;49.892;14.490;2023-12-28T05:41:38;6.85;;;1.88;;
78169;SDS011;67412;49.892;14.490;2023-12-28T05:44:03;5.88;;;1.90;;
78169;SDS011;67412;49.892;14.490;2023-12-28T05:46:29;6.13;;;1.80;;
78169;SDS011;67412;49.892;14.490;2023-12-28T05:48:54;5.28;;;1.83;;
78169;SDS011;67412;49.892;14.490;2023-12-28T05:51:19;4.53;;;1.70;;
78169;SDS011;67412;49.892;14.490;2023-12-28T05:53:45;6.22;;;1.90;;
78169;SDS011;67412;49.892;14.490;2023-12-28T05:56:10;6.15;;;1.73;;
78169;SDS011;67412;49.892;14.490;2023-12-28T05:58:35;6.80;;;2.15;;
78169;SDS011;67412;49.892;14.490;2023-12-28T06:01:01;5.18;;;1.63;;
78169;SDS011;67412;49.892;14.490;2023-12-28T06:03:29;7.07;;;1.90;;
78169;SDS011;67412;49.892;14.490;2023-12-28T06:05:55;5.45;;;1.85;;
78169;SDS011;67412;49.892;14.490;2023-12-28T06:08:20;6.15;;;1.80;;
78169;SDS011;67412;49.892;14.490;2023-12-28T06:10:46;5.70;;;1.65;;
78169;SDS011;67412;49.892;14.490;2023-12-28T06:13:11;7.28;;;1.60;;
78169;SDS011;67412;49.892;14.490;2023-12-28T06:15:36;4.10;;;1.65;;
78169;SDS011;67412;49.892;14.490;2023-12-28T06:18:02;6.57;;;1.75;;
78169;SDS011;67412;49.892;14.490;2023-12-28T06:20:28;6.35;;;1.73;;
78169;SDS011;67412;49.892;14.490;2023-12-28T06:22:53;5.32;;;1.88;;
78169;SDS011;67412;49.892;14.490;2023-12-28T06:25:18;3.67;;;1.42;;
78169;SDS011;67412;49.892;14.490;2023-12-28T06:27:43;5.05;;;1.45;;
78169;SDS011;67412;49.892;14.490;2023-12-28T06:30:09;5.45;;;1.73;;
78169;SDS011;67412;49.892;14.490;2023-12-28T06:32:35;5.95;;;1.88;;
78169;SDS011;67412;49.892;14.490;2023-12-28T06:35:00;4.00;;;1.42;;
78169;SDS011;67412;49.892;14.490;2023-12-28T06:37:25;6.53;;;1.88;;
78169;SDS011;67412;49.892;14.490;2023-12-28T06:39:51;5.53;;;1.73;;
78169;SDS011;67412;49.892;14.490;2023-12-28T06:42:16;5.82;;;1.60;;
78169;SDS011;67412;49.892;14.490;2023-12-28T06:44:41;6.78;;;2.03;;
78169;SDS011;67412;49.892;14.490;2023-12-28T06:47:07;8.05;;;2.03;;
78169;SDS011;67412;49.892;14.490;2023-12-28T06:49:32;4.45;;;1.67;;
78169;SDS011;67412;49.892;14.490;2023-12-28T06:51:57;6.68;;;2.00;;
78169;SDS011;67412;49.892;14.490;2023-12-28T06:54:23;5.10;;;1.65;;
78169;SDS011;67412;49.892;14.490;2023-12-28T06:56:49;4.70;;;1.60;;
78169;SDS011;67412;49.892;14.490;2023-12-28T06:59:16;3.83;;;1.52;;
78169;SDS011;67412;49.892;14.490;2023-12-28T07:01:41;4.85;;;1.45;;
78169;SDS011;67412;49.892;14.490;2023-12-28T07:04:07;4.78;;;1.52;;
78169;SDS011;67412;49.892;14.490;2023-12-28T07:06:32;4.82;;;1.58;;
78169;SDS011;67412;49.892;14.490;2023-12-28T07:08:58;5.05;;;1.60;;
78169;SDS011;67412;49.892;14.490;2023-12-28T07:11:23;4.88;;;1.52;;
78169;SDS011;67412;49.892;14.490;2023-12-28T07:13:49;4.82;;;1.73;;
78169;SDS011;67412;49.892;14.490;2023-12-28T07:16:14;6.03;;;1.45;;
78169;SDS011;67412;49.892;14.490;2023-12-28T07:18:40;2.72;;;1.23;;
78169;SDS011;67412;49.892;14.490;2023-12-28T07:21:06;4.40;;;1.42;;
78169;SDS011;67412;49.892;14.490;2023-12-28T07:23:34;5.50;;;1.60;;
78169;SDS011;67412;49.892;14.490;2023-12-28T07:25:59;5.63;;;1.50;;
78169;SDS011;67412;49.892;14.490;2023-12-28T07:28:25;5.43;;;1.50;;
78169;SDS011;67412;49.892;14.490;2023-12-28T07:30:50;5.57;;;1.70;;
78169;SDS011;67412;49.892;14.490;2023-12-28T07:33:15;5.90;;;1.75;;
78169;SDS011;67412;49.892;14.490;2023-12-28T07:35:41;5.45;;;1.50;;
78169;SDS011;67412;49.892;14.490;2023-12-28T07:38:06;3.75;;;1.50;;
78169;SDS011;67412;49.892;14.490;2023-12-28T07:40:32;6.63;;;1.70;;
78169;SDS011;67412;49.892;14.490;2023-12-28T07:42:57;4.00;;;1.35;;
78169;SDS011;67412;49.892;14.490;2023-12-28T07:45:22;2.53;;;1.13;;
78169;SDS011;67412;49.892;14.490;2023-12-28T07:47:49;6.30;;;1.70;;
78169;SDS011;67412;49.892;14.490;2023-12-28T07:50:16;3.70;;;1.27;;
78169;SDS011;67412;49.892;14.490;2023-12-28T07:52:41;6.60;;;1.92;;
78169;SDS011;67412;49.892;14.490;2023-12-28T07:55:07;5.18;;;1.77;;
78169;SDS011;67412;49.892;14.490;2023-12-28T07:57:34;4.05;;;1.40;;
78169;SDS011;67412;49.892;14.490;2023-12-28T07:59:59;4.65;;;1.42;;
78169;SDS011;67412;49.892;14.490;2023-12-28T08:02:25;4.10;;;1.35;;
78169;SDS011;67412;49.892;14.490;2023-12-28T08:04:50;7.22;;;1.95;;
78169;SDS011;67412;49.892;14.490;2023-12-28T08:07:15;4.68;;;1.65;;
78169;SDS011;67412;49.892;14.490;2023-12-28T08:09:41;5.03;;;1.65;;
78169;SDS011;67412;49.892;14.490;2023-12-28T08:12:06;4.90;;;1.65;;
78169;SDS011;67412;49.892;14.490;2023-12-28T08:14:31;6.18;;;1.60;;
78169;SDS011;67412;49.892;14.490;2023-12-28T08:16:57;5.20;;;1.55;;
78169;SDS011;67412;49.892;14.490;2023-12-28T08:19:22;4.30;;;1.50;;
78169;SDS011;67412;49.892;14.490;2023-12-28T08:21:47;4.72;;;1.35;;
78169;SDS011;67412;49.892;14.490;2023-12-28T08:24:13;5.65;;;1.60;;
78169;SDS011;67412;49.892;14.490;2023-12-28T08:26:38;4.00;;;1.55;;
78169;SDS011;67412;49.892;14.490;2023-12-28T08:29:03;4.00;;;1.40;;
78169;SDS011;67412;49.892;14.490;2023-12-28T08:31:29;4.40;;;1.17;;
78169;SDS011;67412;49.892;14.490;2023-12-28T08:33:54;4.15;;;1.50;;
78169;SDS011;67412;49.892;14.490;2023-12-28T08:36:21;4.18;;;1.63;;
78169;SDS011;67412;49.892;14.490;2023-12-28T08:38:46;7.03;;;1.70;;
78169;SDS011;67412;49.892;14.490;2023-12-28T08:41:19;5.55;;;1.77;;
78169;SDS011;67412;49.892;14.490;2023-12-28T08:43:45;4.85;;;1.65;;
78169;SDS011;67412;49.892;14.490;2023-12-28T08:46:11;3.92;;;1.50;;
78169;SDS011;67412;49.892;14.490;2023-12-28T08:48:36;3.72;;;1.40;;
78169;SDS011;67412;49.892;14.490;2023-12-28T08:51:01;4.50;;;1.23;;
78169;SDS011;67412;49.892;14.490;2023-12-28T08:53:27;4.72;;;1.80;;
78169;SDS011;67412;49.892;14.490;2023-12-28T08:55:53;3.45;;;1.45;;
78169;SDS011;67412;49.892;14.490;2023-12-28T08:58:18;3.25;;;1.00;;
78169;SDS011;67412;49.892;14.490;2023-12-28T09:00:43;3.17;;;1.50;;
78169;SDS011;67412;49.892;14.490;2023-12-28T09:03:10;4.35;;;1.48;;
78169;SDS011;67412;49.892;14.490;2023-12-28T09:05:36;6.22;;;1.33;;
78169;SDS011;67412;49.892;14.490;2023-12-28T09:08:01;5.88;;;2.15;;
78169;SDS011;67412;49.892;14.490;2023-12-28T09:10:26;2.92;;;1.13;;
78169;SDS011;67412;49.892;14.490;2023-12-28T09:12:52;3.30;;;1.13;;
78169;SDS011;67412;49.892;14.490;2023-12-28T09:15:17;5.00;;;1.30;;
78169;SDS011;67412;49.892;14.490;2023-12-28T09:17:42;4.95;;;1.40;;
78169;SDS011;67412;49.892;14.490;2023-12-28T09:20:08;3.42;;;1.20;;
78169;SDS011;67412;49.892;14.490;2023-12-28T09:22:34;3.45;;;1.30;;
78169;SDS011;67412;49.892;14.490;2023-12-28T09:24:59;3.58;;;1.23;;
78169;SDS011;67412;49.892;14.490;2023-12-28T09:27:24;5.00;;;1.20;;
78169;SDS011;67412;49.892;14.490;2023-12-28T09:29:50;4.38;;;1.10;;
78169;SDS011;67412;49.892;14.490;2023-12-28T09:32:15;4.53;;;1.35;;
78169;SDS011;67412;49.892;14.490;2023-12-28T09:34:42;4.50;;;1.23;;
78169;SDS011;67412;49.892;14.490;2023-12-28T09:37:07;4.90;;;1.42;;
78169;SDS011;67412;49.892;14.490;2023-12-28T09:39:33;5.65;;;1.65;;
78169;SDS011;67412;49.892;14.490;2023-12-28T09:41:59;5.85;;;1.77;;
78169;SDS011;67412;49.892;14.490;2023-12-28T09:44:29;4.38;;;1.40;;
78169;SDS011;67412;49.892;14.490;2023-12-28T09:46:55;3.17;;;1.20;;
78169;SDS011;67412;49.892;14.490;2023-12-28T09:51:48;3.00;;;1.00;;
78169;SDS011;67412;49.892;14.490;2023-12-28T09:54:13;6.30;;;1.52;;
78169;SDS011;67412;49.892;14.490;2023-12-28T09:56:39;2.65;;;1.10;;
78169;SDS011;67412;49.892;14.490;2023-12-28T09:59:05;3.08;;;1.00;;
78169;SDS011;67412;49.892;14.490;2023-12-28T10:01:31;4.43;;;1.30;;
78169;SDS011;67412;49.892;14.490;2023-12-28T10:03:59;3.35;;;1.30;;
78169;SDS011;67412;49.892;14.490;2023-12-28T10:06:24;3.38;;;1.13;;
78169;SDS011;67412;49.892;14.490;2023-12-28T10:08:49;3.20;;;1.20;;
78169;SDS011;67412;49.892;14.490;2023-12-28T10:11:16;6.70;;;1.30;;
78169;SDS011;67412;49.892;14.490;2023-12-28T10:13:43;6.43;;;1.15;;
78169;SDS011;67412;49.892;14.490;2023-12-28T10:16:11;3.80;;;1.00;;
78169;SDS011;67412;49.892;14.490;2023-12-28T10:18:43;2.30;;;0.90;;
78169;SDS011;67412;49.892;14.490;2023-12-28T10:21:09;2.92;;;1.10;;
78169;SDS011;67412;49.892;14.490;2023-12-28T10:23:35;3.63;;;0.88;;
78169;SDS011;67412;49.892;14.490;2023-12-28T10:26:01;3.67;;;1.02;;
78169;SDS011;67412;49.892;14.490;2023-12-28T10:28:27;3.28;;;1.15;;
78169;SDS011;67412;49.892;14.490;2023-12-28T10:30:55;4.97;;;1.45;;
78169;SDS011;67412;49.892;14.490;2023-12-28T10:33:21;3.47;;;0.95;;
78169;SDS011;67412;49.892;14.490;2023-12-28T10:35:47;3.17;;;1.10;;
78169;SDS011;67412;49.892;14.490;2023-12-28T10:38:15;2.28;;;0.98;;
78169;SDS011;67412;49.892;14.490;2023-12-28T10:43:08;3.92;;;1.20;;
78169;SDS011;67412;49.892;14.490;2023-12-28T10:45:37;3.13;;;1.10;;
78169;SDS011;67412;49.892;14.490;2023-12-28T10:50:40;4.00;;;1.02;;
78169;SDS011;67412;49.892;14.490;2023-12-28T10:53:30;2.47;;;0.80;;
78169;SDS011;67412;49.892;14.490;2023-12-28T10:58:50;2.33;;;0.63;;
78169;SDS011;67412;49.892;14.490;2023-12-28T11:01:21;2.70;;;0.82;;
78169;SDS011;67412;49.892;14.490;2023-12-28T11:03:56;4.13;;;0.80;;
78169;SDS011;67412;49.892;14.490;2023-12-28T11:06:29;2.53;;;0.90;;
78169;SDS011;67412;49.892;14.490;2023-12-28T11:11:23;3.78;;;0.98;;
78169;SDS011;67412;49.892;14.490;2023-12-28T11:13:48;2.70;;;0.73;;
78169;SDS011;67412;49.892;14.490;2023-12-28T11:16:16;2.53;;;0.80;;
78169;SDS011;67412;49.892;14.490;2023-12-28T11:18:42;3.95;;;0.95;;
78169;SDS011;67412;49.892;14.490;2023-12-28T11:21:10;2.85;;;0.80;;
78169;SDS011;67412;49.892;14.490;2023-12-28T11:23:41;3.67;;;1.00;;
78169;SDS011;67412;49.892;14.490;2023-12-28T11:26:17;3.20;;;0.85;;
78169;SDS011;67412;49.892;14.490;2023-12-28T11:28:43;1.58;;;0.90;;
78169;SDS011;67412;49.892;14.490;2023-12-28T11:31:18;2.63;;;0.70;;
78169;SDS011;67412;49.892;14.490;2023-12-28T11:33:44;1.85;;;0.63;;
78169;SDS011;67412;49.892;14.490;2023-12-28T11:36:10;2.67;;;1.15;;
78169;SDS011;67412;49.892;14.490;2023-12-28T11:38:36;3.97;;;0.80;;
78169;SDS011;67412;49.892;14.490;2023-12-28T11:41:05;2.65;;;0.88;;
78169;SDS011;67412;49.892;14.490;2023-12-28T11:43:34;2.47;;;0.90;;
78169;SDS011;67412;49.892;14.490;2023-12-28T11:46:00;2.58;;;0.80;;
78169;SDS011;67412;49.892;14.490;2023-12-28T11:48:30;8.15;;;1.70;;
78169;SDS011;67412;49.892;14.490;2023-12-28T11:50:56;7.25;;;2.03;;
78169;SDS011;67412;49.892;14.490;2023-12-28T11:53:23;3.00;;;1.00;;
78169;SDS011;67412;49.892;14.490;2023-12-28T11:55:49;2.08;;;0.73;;
78169;SDS011;67412;49.892;14.490;2023-12-28T11:58:18;2.42;;;1.00;;
78169;SDS011;67412;49.892;14.490;2023-12-28T12:00:44;2.35;;;1.00;;
78169;SDS011;67412;49.892;14.490;2023-12-28T12:03:13;2.15;;;0.75;;
78169;SDS011;67412;49.892;14.490;2023-12-28T12:05:39;1.83;;;0.80;;
78169;SDS011;67412;49.892;14.490;2023-12-28T12:08:05;0.55;;;0.40;;
78169;SDS011;67412;49.892;14.490;2023-12-28T12:10:33;3.85;;;1.02;;
78169;SDS011;67412;49.892;14.490;2023-12-28T12:12:59;3.05;;;0.88;;
78169;SDS011;67412;49.892;14.490;2023-12-28T12:15:24;2.88;;;0.90;;
78169;SDS011;67412;49.892;14.490;2023-12-28T12:17:50;4.78;;;1.08;;
78169;SDS011;67412;49.892;14.490;2023-12-28T12:20:15;3.55;;;1.27;;
78169;SDS011;67412;49.892;14.490;2023-12-28T12:22:41;4.82;;;1.10;;
78169;SDS011;67412;49.892;14.490;2023-12-28T12:25:06;3.80;;;1.08;;
78169;SDS011;67412;49.892;14.490;2023-12-28T12:27:33;2.90;;;1.02;;
78169;SDS011;67412;49.892;14.490;2023-12-28T12:29:59;4.43;;;1.10;;
78169;SDS011;67412;49.892;14.490;2023-12-28T12:32:24;3.22;;;1.02;;
78169;SDS011;67412;49.892;14.490;2023-12-28T12:34:50;2.55;;;0.80;;
78169;SDS011;67412;49.892;14.490;2023-12-28T12:37:16;2.70;;;1.20;;
78169;SDS011;67412;49.892;14.490;2023-12-28T12:39:42;3.97;;;1.17;;
78169;SDS011;67412;49.892;14.490;2023-12-28T12:42:12;4.05;;;0.95;;
78169;SDS011;67412;49.892;14.490;2023-12-28T12:44:38;3.55;;;1.20;;
78169;SDS011;67412;49.892;14.490;2023-12-28T12:47:03;2.47;;;0.73;;
78169;SDS011;67412;49.892;14.490;2023-12-28T12:49:29;4.35;;;1.10;;
78169;SDS011;67412;49.892;14.490;2023-12-28T12:51:54;2.25;;;0.90;;
78169;SDS011;67412;49.892;14.490;2023-12-28T12:54:20;2.53;;;0.93;;
78169;SDS011;67412;49.892;14.490;2023-12-28T12:56:45;4.47;;;0.90;;
78169;SDS011;67412;49.892;14.490;2023-12-28T12:59:11;3.33;;;1.02;;
78169;SDS011;67412;49.892;14.490;2023-12-28T13:01:42;2.60;;;0.95;;
78169;SDS011;67412;49.892;14.490;2023-12-28T13:04:13;2.45;;;0.73;;
78169;SDS011;67412;49.892;14.490;2023-12-28T13:06:40;3.83;;;1.00;;
78169;SDS011;67412;49.892;14.490;2023-12-28T13:09:06;2.83;;;0.90;;
78169;SDS011;67412;49.892;14.490;2023-12-28T13:11:32;3.05;;;1.00;;
78169;SDS011;67412;49.892;14.490;2023-12-28T13:13:58;4.15;;;1.05;;
78169;SDS011;67412;49.892;14.490;2023-12-28T13:16:24;4.72;;;1.33;;
78169;SDS011;67412;49.892;14.490;2023-12-28T13:18:50;1.38;;;0.57;;
78169;SDS011;67412;49.892;14.490;2023-12-28T13:21:15;1.73;;;0.90;;
78169;SDS011;67412;49.892;14.490;2023-12-28T13:23:40;4.40;;;1.20;;
78169;SDS011;67412;49.892;14.490;2023-12-28T13:26:05;3.60;;;0.82;;
78169;SDS011;67412;49.892;14.490;2023-12-28T13:28:31;3.35;;;0.90;;
78169;SDS011;67412;49.892;14.490;2023-12-28T13:30:57;3.90;;;1.13;;
78169;SDS011;67412;49.892;14.490;2023-12-28T13:33:22;2.13;;;1.00;;
78169;SDS011;67412;49.892;14.490;2023-12-28T13:38:14;2.13;;;0.90;;
78169;SDS011;67412;49.892;14.490;2023-12-28T13:40:40;3.67;;;1.33;;
78169;SDS011;67412;49.892;14.490;2023-12-28T13:43:05;3.47;;;1.10;;
78169;SDS011;67412;49.892;14.490;2023-12-28T13:45:30;2.85;;;1.00;;
78169;SDS011;67412;49.892;14.490;2023-12-28T13:47:56;3.72;;;1.17;;
78169;SDS011;67412;49.892;14.490;2023-12-28T13:50:21;1.52;;;0.80;;
78169;SDS011;67412;49.892;14.490;2023-12-28T13:52:46;2.42;;;1.00;;
78169;SDS011;67412;49.892;14.490;2023-12-28T13:55:12;4.10;;;1.20;;
78169;SDS011;67412;49.892;14.490;2023-12-28T13:57:37;2.80;;;0.93;;
78169;SDS011;67412;49.892;14.490;2023-12-28T14:00:03;3.33;;;1.10;;
78169;SDS011;67412;49.892;14.490;2023-12-28T14:02:30;2.40;;;0.85;;
78169;SDS011;67412;49.892;14.490;2023-12-28T14:04:55;3.33;;;1.02;;
78169;SDS011;67412;49.892;14.490;2023-12-28T14:07:24;2.80;;;1.00;;
78169;SDS011;67412;49.892;14.490;2023-12-28T14:09:50;2.42;;;1.13;;
78169;SDS011;67412;49.892;14.490;2023-12-28T14:12:16;2.75;;;1.10;;
78169;SDS011;67412;49.892;14.490;2023-12-28T14:14:41;4.22;;;1.30;;
78169;SDS011;67412;49.892;14.490;2023-12-28T14:17:06;3.92;;;1.25;;
78169;SDS011;67412;49.892;14.490;2023-12-28T14:19:32;1.85;;;0.80;;
78169;SDS011;67412;49.892;14.490;2023-12-28T14:21:58;3.67;;;1.05;;
78169;SDS011;67412;49.892;14.490;2023-12-28T14:24:24;6.18;;;1.90;;
78169;SDS011;67412;49.892;14.490;2023-12-28T14:26:50;6.18;;;1.55;;
78169;SDS011;67412;49.892;14.490;2023-12-28T14:29:19;4.10;;;1.40;;
78169;SDS011;67412;49.892;14.490;2023-12-28T14:31:45;5.07;;;1.30;;
78169;SDS011;67412;49.892;14.490;2023-12-28T14:34:10;6.13;;;2.00;;
78169;SDS011;67412;49.892;14.490;2023-12-28T14:36:36;6.13;;;1.42;;
78169;SDS011;67412;49.892;14.490;2023-12-28T14:39:06;4.68;;;1.38;;
78169;SDS011;67412;49.892;14.490;2023-12-28T14:41:36;6.03;;;1.70;;
78169;SDS011;67412;49.892;14.490;2023-12-28T14:44:02;4.47;;;1.45;;